Latest Coastal Weather Observations for Cape Borda

IDT60701

Issued at 5:52 pm EST Wednesday 26 April 2017 (issued every 10 minutes, with the page automatically refreshed every 10 minutes)

About coastal observations | Map of coastal stations | Coastal observations for TAS | Marine services | Other Formats
Station Details ID: 022823 Name: CAPE BORDA Lat: -35.75 Lon: 136.60 Height: 158.0 m
Data from the previous 72 hours. | See also: Recent months at Cape Borda
Date/Time
EST
Temp
°C
Wind Pressure Rain since
9am
mm
Weather Cloud Vis
km
Sea
Height
m
Swell
Dir  Spd
kts
Gust
kts
hPa Trend Height
m
Period
s
Dir
26/05:30pm 12.0 SSW 10 15 1024.6 - 0.0 - - - - - - -
26/05:00pm 12.2 S 11 17 1024.5 - 0.0 - - - - - - -
26/04:30pm 12.7 SSW 10 16 1024.3 - 0.0 - - - - - - -
26/04:00pm 13.1 S 11 15 1024.2 - 0.0 - - - - - - -
26/03:30pm 12.5 S 12 16 1023.7 R 0.0 Fine Mostly cloudy 18 1 6.8 8 SW
26/03:00pm 13.4 SSW 14 19 1023.7 - 0.0 - - - - - - -
26/02:30pm 12.4 S 10 14 1023.7 - 0.0 - - - - - - -
26/02:00pm 12.8 S 12 19 1023.6 - 0.0 - - - - - - -
26/01:30pm 13.3 S 12 18 1023.6 - 0.0 - - - - - - -
26/01:00pm 11.9 SSE 13 19 1023.7 - 0.0 - - - - - - -
26/12:57pm 11.7 S 15 25 1023.8 - 0.0 - - - - - - -
26/12:30pm 11.9 S 13 19 1023.6 - 0.0 - - - - - - -
26/12:00pm 12.1 S 13 18 1023.7 - 0.0 - - - - - - -
26/11:30am 12.3 SSE 12 18 1023.5 - 0.0 - - - - - - -
26/11:00am 12.3 S 15 21 1023.1 - 0.0 - - - - - - -
26/10:30am 12.2 S 13 17 1022.9 - 0.0 - - - - - - -
26/10:00am 12.7 S 15 22 1022.5 - 0.0 - - - - - - -
26/09:40am 11.1 S 15 25 1022.4 - 0.0 - - - - - - -
26/09:30am 11.7 S 12 16 1022.1 R 6.8 Fine Mostly cloudy 15 2 7.8 8 SW
26/09:00am 10.8 S 15 24 1022.0 - 6.8 - - - - - - -
26/08:50am 10.7 S 17 27 1021.8 - 6.8 - - - - - - -
26/08:30am 10.8 S 13 19 1021.5 - 6.8 - - - - - - -
26/08:00am 10.7 S 15 23 1021.0 - 6.8 - - - - - - -
26/07:30am 9.7 S 15 20 1020.4 - 6.8 - - - - - - -
26/07:05am 10.3 S 16 26 1019.9 - 6.8 - - - - - - -
26/07:00am 10.2 S 16 23 1019.9 - 6.8 - - - - - - -
26/06:41am 10.4 S 16 27 1019.6 - 6.8 - - - - - - -
26/06:30am 9.8 S 16 24 1019.2 - 6.8 - - - - - - -
26/06:05am 10.6 S 17 29 1018.6 - 6.8 - - - - - - -
26/06:00am 10.3 S 16 23 1018.7 - 6.8 - - - - - - -
26/05:37am 10.3 S 19 29 1018.3 - 6.8 - - - - - - -
26/05:30am 10.5 S 17 25 1018.2 - 6.8 - - - - - - -
26/05:07am 10.8 S 20 30 1017.9 - 6.8 - - - - - - -
26/05:00am 10.8 SSW 20 29 1017.8 - 6.8 - - - - - - -
26/04:30am 10.6 SSW 19 29 1017.3 - 6.8 - - - - - - -
26/04:00am 10.5 S 23 34 1016.9 - 6.8 - - - - - - -
26/03:30am 10.7 SSW 23 33 1016.7 - 6.8 - - - - - - -
26/03:00am 10.4 SSW 24 39 1016.1 - 6.8 - - - - - - -
26/02:30am 10.5 SSW 23 34 1016.1 - 6.8 - - - - - - -
26/02:00am 11.0 SSW 25 36 1015.4 - 6.8 - - - - - - -
26/01:30am 10.1 SSW 25 35 1015.3 - 6.8 - - - - - - -
26/01:16am 11.1 SW 22 33 1015.2 - 6.6 - - - - - - -
26/01:07am 11.0 S 22 32 1015.0 - 6.6 - - - - - - -
26/01:00am 11.2 SSW 22 31 1015.0 - 6.6 - - - - - - -
26/12:30am 11.7 SSW 26 40 1014.7 - 6.6 - - - - - - -
26/12:03am 12.4 SW 23 33 1014.7 - 6.6 - - - - - - -
26/12:00am 12.5 SW 24 33 1014.5 - 6.6 - - - - - - -
 
Date/Time
EST
Temp
°C
Wind Pressure Rain since
9am
mm
Weather Cloud Vis
km
Sea
Height
m
Swell
Dir  Spd
kts
Gust
kts
hPa Trend Height
m
Period
s
Dir
25/11:30pm 12.9 SSW 22 32 1014.3 - 6.6 - - - - - - -
25/11:00pm 12.6 SSW 25 35 1014.4 - 6.6 - - - - - - -
25/10:30pm 12.5 SSW 23 33 1014.2 - 6.6 - - - - - - -
25/10:00pm 13.1 SSW 23 33 1013.9 - 6.6 - - - - - - -
25/09:32pm 13.1 SSW 22 32 1013.5 - 6.6 - - - - - - -
25/09:30pm 13.0 SSW 23 32 1013.3 - 6.6 - - - - - - -
25/09:00pm 12.3 SSW 23 39 1013.1 - 6.6 - - - - - - -
25/08:33pm 12.4 SSW 20 35 1012.6 - 6.4 - - - - - - -
25/08:30pm 12.7 SSW 19 28 1012.7 - 6.2 - - - - - - -
25/08:20pm 12.9 SSW 22 32 1012.5 - 6.0 - - - - - - -
25/08:15pm 13.3 SSW 22 27 1012.5 - 5.8 - - - - - - -
25/08:13pm 13.5 WSW 19 30 1012.5 - 5.8 - - - - - - -
25/08:00pm 13.6 WSW 18 27 1012.5 - 5.2 - - - - - - -
25/07:30pm 15.1 W 20 32 1012.2 - 4.4 - - - - - - -
25/07:28pm 15.1 W 19 32 1012.2 - 4.4 - - - - - - -
25/07:00pm 14.3 W 16 23 1012.3 - 4.4 - - - - - - -
25/06:30pm 13.7 W 22 33 1012.2 - 4.4 - - - - - - -
25/06:24pm 15.2 W 17 27 1012.1 - 4.4 - - - - - - -
25/06:00pm 14.9 W 16 24 1012.1 - 4.4 - - - - - - -
25/05:30pm 15.0 WSW 16 26 1012.1 - 4.4 - - - - - - -
25/05:00pm 15.1 WSW 17 23 1011.9 - 4.4 - - - - - - -
25/04:30pm 15.2 WSW 17 24 1012.0 - 4.4 - - - - - - -
25/04:00pm 16.0 WSW 18 28 1012.0 - 4.2 - - - - - - -
25/03:45pm 15.5 WSW 18 28 1012.0 - 4.2 - - - - - - -
25/03:30pm 15.5 WSW 19 25 1011.9 F 4.2 Distant precip. Mostly cloudy 15 2 3.2 6 SW
25/03:00pm 14.7 WSW 14 22 1012.1 - 4.2 - - - - - - -
25/02:30pm 16.0 WSW 13 19 1012.2 - 3.8 - - - - - - -
25/02:00pm 15.6 WSW 13 19 1012.5 - 3.8 - - - - - - -
25/01:30pm 15.0 WSW 11 15 1012.9 - 3.8 - - - - - - -
25/01:00pm 14.9 SW 12 16 1013.3 - 3.8 - - - - - - -
25/12:30pm 14.0 SW 11 17 1013.5 - 3.8 - - - - - - -
25/12:21pm 13.8 SW 15 25 1013.7 - 3.6 - - - - - - -
25/12:00pm 14.1 W 13 19 1013.9 - 3.6 - - - - - - -
25/11:30am 16.7 W 12 19 1013.8 - 0.0 - - - - - - -
25/11:00am 16.4 WSW 12 17 1014.0 - 0.0 - - - - - - -
25/10:30am 16.9 WSW 12 15 1014.0 - 0.0 - - - - - - -
25/10:00am 16.9 WSW 9 13 1014.0 - 0.0 - - - - - - -
25/09:30am 16.2 WSW 11 16 1014.2 R 19.2 Fine Mostly cloudy 25 1 2.9 6 SW
25/09:00am 15.8 SW 10 16 1014.3 - 19.2 - - - - - - -
25/08:30am 15.4 SW 11 16 1014.0 - 19.2 - - - - - - -
25/08:00am 15.2 SW 13 18 1013.8 - 19.2 - - - - - - -
25/07:30am 14.8 SW 12 18 1013.5 - 19.2 - - - - - - -
25/07:00am 15.0 SW 11 17 1013.2 - 19.2 - - - - - - -
25/06:30am 15.0 SW 11 17 1013.0 - 19.2 - - - - - - -
25/06:00am 15.3 SW 13 18 1012.8 - 19.2 - - - - - - -
25/05:30am 15.5 SW 13 17 1012.6 - 19.2 - - - - - - -
25/05:00am 15.5 SW 12 18 1012.4 - 19.2 - - - - - - -
25/04:30am 15.5 SSW 13 19 1012.2 - 19.2 - - - - - - -
25/04:00am 15.7 SSW 14 20 1012.1 - 19.2 - - - - - - -
25/03:30am 15.6 SW 15 22 1012.0 - 19.2 - - - - - - -
25/03:00am 15.7 SW 15 24 1012.2 - 19.2 - - - - - - -
25/02:30am 15.5 SSW 14 19 1012.1 - 19.2 - - - - - - -
25/02:00am 15.9 SW 14 22 1012.1 - 19.2 - - - - - - -
25/01:30am 15.8 SW 17 22 1012.1 - 19.2 - - - - - - -
25/01:00am 15.8 SW 13 19 1012.3 - 19.2 - - - - - - -
25/12:30am 15.7 SW 13 18 1012.5 - 19.2 - - - - - - -
25/12:00am 15.2 WSW 11 15 1012.9 - 19.2 - - - - - - -
 
Date/Time
EST
Temp
°C
Wind Pressure Rain since
9am
mm
Weather Cloud Vis
km
Sea
Height
m
Swell
Dir  Spd
kts
Gust
kts
hPa Trend Height
m
Period
s
Dir
24/11:30pm 15.3 WSW 12 17 1013.2 - 19.2 - - - - - - -
24/11:00pm 15.7 WSW 12 17 1013.3 - 19.2 - - - - - - -
24/10:30pm 15.9 W 10 13 1013.4 - 19.2 - - - - - - -
24/10:00pm 15.6 W 11 14 1013.6 - 19.2 - - - - - - -
24/09:30pm 15.5 W 10 14 1013.5 - 19.2 - - - - - - -
24/09:00pm 15.2 SW 9 13 1013.7 - 19.2 - - - - - - -
24/08:30pm 15.1 WSW 10 15 1013.9 - 19.2 - - - - - - -
24/08:00pm 15.1 SW 11 16 1013.8 - 19.2 - - - - - - -
24/07:30pm 15.1 SW 11 16 1013.5 - 19.2 - - - - - - -
24/07:00pm 15.3 SW 11 15 1013.2 - 19.2 - - - - - - -
24/06:30pm 15.9 SW 11 15 1013.0 - 19.2 - - - - - - -
24/06:00pm 16.4 SSW 10 13 1012.9 - 19.2 - - - - - - -
24/05:30pm 16.5 SW 11 15 1012.9 - 19.2 - - - - - - -
24/05:00pm 17.1 SW 11 15 1012.6 - 19.2 - - - - - - -
24/04:30pm 16.9 SW 11 15 1012.7 - 19.2 - - - - - - -
24/04:00pm 17.1 SW 10 15 1012.7 - 19.2 - - - - - - -
24/03:30pm 17.0 WSW 11 14 1012.7 F 19.2 Distant precip. Mostly cloudy 18 <0.5 3.7 10 SW
24/03:00pm 17.5 W 10 13 1013.0 - 19.2 - - - - - - -
24/02:30pm 17.6 W 7 10 1013.1 - 19.2 - - - - - - -
24/02:00pm 17.3 W 7 9 1013.3 - 19.2 - - - - - - -
24/01:30pm 17.3 NW 8 12 1013.7 - 18.6 - - - - - - -
24/01:00pm 17.4 N 7 9 1014.3 - 18.6 - - - - - - -
24/12:30pm 16.8 NNE 7 11 1014.7 - 18.6 - - - - - - -
24/12:00pm 16.6 ENE 5 9 1015.4 - 14.4 - - - - - - -
24/11:30am 16.8 NNE 9 13 1015.8 - 6.4 - - - - - - -
24/11:00am 16.9 ENE 8 12 1015.9 - 0.0 - - - - - - -
24/10:30am 16.9 ENE 10 13 1016.2 - 0.0 - - - - - - -
24/10:00am 16.7 NE 9 13 1016.6 - 0.0 - - - - - - -
24/09:30am 16.9 NE 9 12 1016.6 F 0.0 Distant precip. Mostly cloudy 15 <0.5 3.9 10 SW
24/09:00am 16.9 NE 9 12 1016.8 - 0.0 - - - - - - -
24/08:30am 17.0 NE 10 14 1016.8 - 0.0 - - - - - - -
24/08:00am 17.1 NE 10 14 1017.0 - 0.0 - - - - - - -
24/07:30am 16.8 ENE 9 13 1017.2 - 0.0 - - - - - - -
24/07:00am 16.9 ENE 9 11 1017.2 - 0.0 - - - - - - -
24/06:30am 16.9 ENE 8 11 1017.2 - 0.0 - - - - - - -
24/06:00am 16.7 ENE 8 11 1017.4 - 0.0 - - - - - - -
24/05:30am 16.5 ENE 9 12 1017.2 - 0.0 - - - - - - -
24/05:00am 16.2 ENE 7 9 1017.6 - 0.0 - - - - - - -
24/04:30am 16.3 ENE 7 9 1017.6 - 0.0 - - - - - - -
24/04:00am 16.4 ENE 7 9 1017.9 - 0.0 - - - - - - -
24/03:30am 16.4 ENE 7 9 1018.1 - 0.0 - - - - - - -
24/03:00am 16.1 E 7 10 1018.5 - 0.0 - - - - - - -
24/02:30am 15.9 E 7 10 1018.8 - 0.0 - - - - - - -
24/02:00am 15.6 ESE 7 7 1018.9 - 0.0 - - - - - - -
24/01:30am 15.7 ESE 7 8 1019.2 - 0.0 - - - - - - -
24/01:00am 15.8 ESE 8 9 1019.6 - 0.0 - - - - - - -
24/12:30am 15.7 E 7 9 1020.0 - 0.0 - - - - - - -
24/12:00am 15.7 ESE 7 9 1020.3 - 0.0 - - - - - - -
 
Date/Time
EST
Temp
°C
Wind Pressure Rain since
9am
mm
Weather Cloud Vis
km
Sea
Height
m
Swell
Dir  Spd
kts
Gust
kts
hPa Trend Height
m
Period
s
Dir
23/11:30pm 15.6 ESE 7 9 1020.6 - 0.0 - - - - - - -
23/11:00pm 15.8 E 8 9 1020.9 - 0.0 - - - - - - -
23/10:30pm 15.8 ESE 7 9 1021.1 - 0.0 - - - - - - -
23/10:00pm 16.0 ESE 7 8 1021.1 - 0.0 - - - - - - -
23/09:30pm 16.1 ESE 7 9 1020.7 - 0.0 - - - - - - -
23/09:00pm 16.1 ESE 8 11 1020.6 - 0.0 - - - - - - -
23/08:30pm 16.4 ESE 7 9 1020.9 - 0.0 - - - - - - -
23/08:00pm 16.7 ESE 6 7 1021.0 - 0.0 - - - - - - -
23/07:30pm 17.3 SSE 6 7 1021.0 - 0.0 - - - - - - -
23/07:00pm 17.4 S 6 7 1020.9 - 0.0 - - - - - - -
23/06:30pm 18.0 SSW 5 6 1020.4 - 0.0 - - - - - - -

Other Formats:

Comma delimited format used in spreadsheet applications
http://www.bom.gov.au/fwo/IDT60701/IDT60701.95805.axf

JavaScript Object Notation format (JSON) in row-major order
http://www.bom.gov.au/fwo/IDT60701/IDT60701.95805.json